Lovell Field
KCHA : now visible

Airfield :











YOU CAN JOIN US ON...

 
LOGIN :

Register | Disclaimer

   EN    FR    IT 

 









Legend :    VFR   Marginal VFR   IFR   Intensive IFR   Very Intensive IFR
Visi :
Ceiling :
>= 8 km
>= 3000ft
5 to 8 km
1000 to 3000 ft
1500m to 5 km
500 to 1000 ft
800 to 1500m
200 to 500 ft
< 800m
< 200 ft
Symbols :   Thunderstorms  Fog  Heavy snow  Heavy precipitations  Wind > 20 kt







- Airport Elevation : 683 ft
- IATA code : CHA


KCHA - Lovell Field

CURRENT METAR :
  • 260153Z 19005KT 10SM OVC034 23/20 A3005 RMK AO2 SLP168 T02330200 $

EXPIRED METARs :
  • 260053Z 18003KT 10SM SCT036 SCT047 BKN060 24/20 A3003 RMK AO2 SLP163 T02390200 $
  • 252353Z 19004KT 10SM SCT031 OVC035 24/19 A3002 RMK AO2 SLP159 T02390194 10250 20222 57001 $
  • 252336Z 19004KT 10SM SCT031 OVC035 24/19 A3002 RMK AO2 T02390194 $

TAF KCHA
Valid from the 26 at 00:00 until the 27 at 00:00 UTC


252359Z 2600/2624 VRB04KT P6SM VCSH SCT020 OVC035
FM261400 15006KT P6SM OVC025
PROB30 2614/2620 4SM -SHRA OVC015
FM262000 14006KT 3SM -SHRA OVC015
No reported NOTAMs for that airfield.



MET'MAP, your aeronautical weather chart ! - Copyright ORBIFLY December 2007 - Disclaimer

ORBIFLY MET'MAP TEAM :

Programming & Development : Alexandra Zaïnal
Concept & Development : Baudouin d'Aumeries
Co-Development & Prog : Marc-Olivier Méhu
Technical & hardware support : Manuel Goepfert

Contact : metmap@orbifly.com




SOURCES & CREDITS :

   NOAA       Earth
Advisory